THA600 VTBS-VHHH
Flight info
| Callsign | THA600 |
|---|---|
| Flight time | 2h 4m |
| Altitude | 37000 |
| Route | SELKA1F SELKA A1 SANOT Y15 GUROK A202 VILAO/K0907F370 A202 ASSAD/K0907S1130 A202 SAMAS/K0815S0630 A202 SIKOU/N0491F370 V571 CANTO |
| Aircraft | B77W/H-SDE1E2E3FGHIJ2J3J4J5M1RWXY/LB1D1 |
Departure
| Time | 2026-05-06 00:14 |
|---|---|
| Airport | Suvarnabhumi Airport (VTBS) |
Arrival
| Time | 2026-05-06 02:18 |
|---|---|
| Airport | Hong Kong International Airport (VHHH) |
| Time | Latitude | Longitude | Altitude | Speed | Heading |
|---|---|---|---|---|---|
| 2026-05-05 23:26 | 13.69102 | 100.74920 | 18 ft | 0 kts | 14° |
| 2026-05-05 23:26 | 13.69113 | 100.74923 | 18 ft | 0 kts | 14° |
| 2026-05-05 23:28 | 13.69102 | 100.74920 | 18 ft | 0 kts | 14° |
| 2026-05-05 23:28 | 13.69113 | 100.74923 | 18 ft | 0 kts | 14° |
| 2026-05-05 23:59 | 13.69099 | 100.74920 | 19 ft | 4 kts | 7° |
| 2026-05-06 00:00 | 13.69074 | 100.74919 | 22 ft | 4 kts | 351° |
| 2026-05-06 00:00 | 13.69052 | 100.74924 | 21 ft | 4 kts | 333° |
| 2026-05-06 00:00 | 13.69032 | 100.74938 | 23 ft | 4 kts | 314° |
| 2026-05-06 00:00 | 13.69016 | 100.74958 | 21 ft | 4 kts | 296° |
| 2026-05-06 00:01 | 13.69009 | 100.74977 | 21 ft | 0 kts | 284° |
| 2026-05-06 00:03 | 13.69009 | 100.74976 | 18 ft | 1 kts | 284° |
| 2026-05-06 00:03 | 13.69011 | 100.74969 | 18 ft | 2 kts | 284° |
| 2026-05-06 00:04 | 13.69014 | 100.74954 | 18 ft | 3 kts | 284° |
| 2026-05-06 00:04 | 13.69020 | 100.74933 | 18 ft | 4 kts | 284° |
| 2026-05-06 00:04 | 13.69026 | 100.74905 | 18 ft | 5 kts | 284° |
| 2026-05-06 00:04 | 13.69035 | 100.74870 | 18 ft | 5 kts | 284° |
| 2026-05-06 00:05 | 13.69020 | 100.74792 | 18 ft | 7 kts | 217° |
| 2026-05-06 00:05 | 13.68977 | 100.74773 | 18 ft | 7 kts | 199° |
| 2026-05-06 00:05 | 13.68927 | 100.74760 | 18 ft | 8 kts | 194° |
| 2026-05-06 00:06 | 13.68872 | 100.74746 | 18 ft | 8 kts | 194° |
| 2026-05-06 00:06 | 13.68815 | 100.74731 | 18 ft | 9 kts | 194° |
| 2026-05-06 00:06 | 13.68755 | 100.74715 | 18 ft | 9 kts | 194° |
| 2026-05-06 00:06 | 13.68711 | 100.74676 | 18 ft | 9 kts | 256° |
| 2026-05-06 00:07 | 13.68717 | 100.74611 | 18 ft | 9 kts | 283° |
| 2026-05-06 00:07 | 13.68734 | 100.74543 | 18 ft | 10 kts | 284° |
| 2026-05-06 00:07 | 13.68751 | 100.74474 | 18 ft | 10 kts | 284° |
| 2026-05-06 00:07 | 13.68769 | 100.74405 | 18 ft | 10 kts | 284° |
| 2026-05-06 00:08 | 13.68786 | 100.74336 | 18 ft | 10 kts | 285° |
| 2026-05-06 00:08 | 13.68804 | 100.74267 | 18 ft | 10 kts | 284° |
| 2026-05-06 00:08 | 13.68821 | 100.74198 | 18 ft | 10 kts | 284° |
| 2026-05-06 00:08 | 13.68833 | 100.74148 | 19 ft | 5 kts | 278° |
| 2026-05-06 00:09 | 13.68819 | 100.74114 | 19 ft | 5 kts | 229° |
| 2026-05-06 00:09 | 13.68786 | 100.74096 | 19 ft | 6 kts | 201° |
| 2026-05-06 00:09 | 13.68730 | 100.74080 | 19 ft | 11 kts | 195° |
| 2026-05-06 00:09 | 13.68639 | 100.74055 | 19 ft | 16 kts | 194° |
| 2026-05-06 00:10 | 13.68514 | 100.74022 | 19 ft | 21 kts | 194° |
| 2026-05-06 00:10 | 13.68375 | 100.73986 | 18 ft | 21 kts | 194° |
| 2026-05-06 00:10 | 13.68238 | 100.73950 | 18 ft | 21 kts | 194° |
| 2026-05-06 00:10 | 13.68099 | 100.73913 | 18 ft | 21 kts | 194° |
| 2026-05-06 00:11 | 13.67960 | 100.73877 | 18 ft | 21 kts | 194° |
| 2026-05-06 00:11 | 13.67820 | 100.73841 | 18 ft | 21 kts | 194° |
| 2026-05-06 00:11 | 13.67681 | 100.73804 | 18 ft | 21 kts | 194° |
| 2026-05-06 00:11 | 13.67542 | 100.73767 | 18 ft | 21 kts | 194° |
| 2026-05-06 00:12 | 13.67404 | 100.73730 | 18 ft | 21 kts | 194° |
| 2026-05-06 00:12 | 13.67264 | 100.73694 | 18 ft | 21 kts | 194° |
| 2026-05-06 00:12 | 13.67153 | 100.73665 | 18 ft | 10 kts | 194° |
| 2026-05-06 00:12 | 13.67107 | 100.73638 | 18 ft | 8 kts | 231° |
| 2026-05-06 00:13 | 13.67098 | 100.73583 | 17 ft | 9 kts | 274° |
| 2026-05-06 00:13 | 13.67119 | 100.73523 | 17 ft | 9 kts | 306° |
| 2026-05-06 00:13 | 13.67177 | 100.73489 | 17 ft | 15 kts | 350° |
| 2026-05-06 00:13 | 13.67399 | 100.73538 | 19 ft | 62 kts | 14° |
| 2026-05-06 00:14 | 13.68109 | 100.73725 | 18 ft | 145 kts | 14° |
| 2026-05-06 00:14 | 13.69263 | 100.74042 | 270 ft | 184 kts | 15° |
| 2026-05-06 00:14 | 13.70514 | 100.74354 | 1112 ft | 187 kts | 13° |
| 2026-05-06 00:14 | 13.71827 | 100.74659 | 1865 ft | 196 kts | 12° |
| 2026-05-06 00:15 | 13.73216 | 100.75001 | 2340 ft | 219 kts | 15° |
| 2026-05-06 00:15 | 13.74791 | 100.75463 | 2647 ft | 251 kts | 16° |
| 2026-05-06 00:15 | 13.76508 | 100.75973 | 3367 ft | 261 kts | 15° |
| 2026-05-06 00:15 | 13.78295 | 100.76438 | 4243 ft | 266 kts | 17° |
| 2026-05-06 00:16 | 13.79896 | 100.77386 | 4988 ft | 272 kts | 49° |
| 2026-05-06 00:16 | 13.80856 | 100.79050 | 5851 ft | 273 kts | 65° |
| 2026-05-06 00:16 | 13.81678 | 100.80828 | 6718 ft | 277 kts | 65° |
| 2026-05-06 00:16 | 13.82510 | 100.82630 | 7653 ft | 279 kts | 65° |
| 2026-05-06 00:17 | 13.83354 | 100.84442 | 8521 ft | 283 kts | 65° |
| 2026-05-06 00:17 | 13.84218 | 100.86277 | 9391 ft | 287 kts | 64° |
| 2026-05-06 00:17 | 13.85103 | 100.88137 | 10220 ft | 292 kts | 64° |
| 2026-05-06 00:17 | 13.86027 | 100.90065 | 10721 ft | 312 kts | 64° |
| 2026-05-06 00:18 | 13.87037 | 100.92159 | 10931 ft | 342 kts | 64° |
| 2026-05-06 00:18 | 13.88141 | 100.94439 | 11147 ft | 369 kts | 64° |
| 2026-05-06 00:18 | 13.89312 | 100.96846 | 11804 ft | 382 kts | 63° |
| 2026-05-06 00:18 | 13.90514 | 100.99313 | 12672 ft | 389 kts | 63° |
| 2026-05-06 00:19 | 13.91737 | 101.01819 | 13614 ft | 395 kts | 63° |
| 2026-05-06 00:19 | 13.92978 | 101.04359 | 14445 ft | 400 kts | 63° |
| 2026-05-06 00:19 | 13.94234 | 101.06931 | 15265 ft | 405 kts | 63° |
| 2026-05-06 00:19 | 13.95506 | 101.09536 | 16079 ft | 410 kts | 63° |
| 2026-05-06 00:20 | 13.96796 | 101.12179 | 16847 ft | 416 kts | 63° |
| 2026-05-06 00:20 | 13.98101 | 101.14854 | 17618 ft | 421 kts | 63° |
| 2026-05-06 00:20 | 13.99407 | 101.17531 | 18333 ft | 426 kts | 63° |
| 2026-05-06 00:20 | 14.00763 | 101.20313 | 18997 ft | 431 kts | 63° |
| 2026-05-06 00:21 | 14.02096 | 101.23046 | 19660 ft | 435 kts | 63° |
| 2026-05-06 00:21 | 14.03455 | 101.25837 | 20327 ft | 439 kts | 63° |
| 2026-05-06 00:21 | 14.04832 | 101.28665 | 20976 ft | 443 kts | 63° |
| 2026-05-06 00:21 | 14.06217 | 101.31511 | 21600 ft | 447 kts | 63° |
| 2026-05-06 00:22 | 14.07619 | 101.34391 | 22217 ft | 451 kts | 63° |
| 2026-05-06 00:22 | 14.09032 | 101.37296 | 22828 ft | 456 kts | 63° |
| 2026-05-06 00:22 | 14.10456 | 101.40224 | 23417 ft | 460 kts | 63° |
| 2026-05-06 00:22 | 14.11896 | 101.43186 | 23912 ft | 464 kts | 63° |
| 2026-05-06 00:23 | 14.13344 | 101.46167 | 24391 ft | 467 kts | 63° |
| 2026-05-06 00:23 | 14.14806 | 101.49176 | 24880 ft | 471 kts | 63° |
| 2026-05-06 00:23 | 14.16274 | 101.52200 | 25369 ft | 474 kts | 63° |
| 2026-05-06 00:23 | 14.17755 | 101.55252 | 25836 ft | 477 kts | 63° |
| 2026-05-06 00:24 | 14.19244 | 101.58320 | 26298 ft | 480 kts | 63° |
| 2026-05-06 00:24 | 14.20741 | 101.61407 | 26760 ft | 484 kts | 63° |
| 2026-05-06 00:24 | 14.22250 | 101.64520 | 27201 ft | 487 kts | 63° |
| 2026-05-06 00:24 | 14.23768 | 101.67652 | 27629 ft | 490 kts | 63° |
| 2026-05-06 00:25 | 14.25295 | 101.70806 | 28038 ft | 493 kts | 63° |
| 2026-05-06 00:25 | 14.26831 | 101.73978 | 28434 ft | 496 kts | 63° |
| 2026-05-06 00:25 | 14.28376 | 101.77171 | 28798 ft | 500 kts | 63° |
| 2026-05-06 00:25 | 14.29933 | 101.80390 | 29147 ft | 503 kts | 63° |
| 2026-05-06 00:26 | 14.31498 | 101.83626 | 29492 ft | 506 kts | 63° |
| 2026-05-06 00:26 | 14.33071 | 101.86883 | 29815 ft | 508 kts | 64° |
| 2026-05-06 00:26 | 14.34523 | 101.90210 | 30198 ft | 509 kts | 69° |
| 2026-05-06 00:26 | 14.35725 | 101.93637 | 30597 ft | 508 kts | 71° |
| 2026-05-06 00:27 | 14.36874 | 101.97074 | 31018 ft | 507 kts | 71° |
| 2026-05-06 00:27 | 14.38008 | 102.00509 | 31434 ft | 506 kts | 71° |
| 2026-05-06 00:27 | 14.39130 | 102.03895 | 31869 ft | 505 kts | 71° |
| 2026-05-06 00:27 | 14.40287 | 102.07358 | 32323 ft | 504 kts | 71° |
| 2026-05-06 00:28 | 14.41437 | 102.10770 | 32759 ft | 503 kts | 70° |
| 2026-05-06 00:28 | 14.42575 | 102.14131 | 33174 ft | 503 kts | 70° |
| 2026-05-06 00:28 | 14.43729 | 102.17532 | 33616 ft | 502 kts | 70° |
| 2026-05-06 00:28 | 14.44881 | 102.20924 | 34050 ft | 501 kts | 70° |
| 2026-05-06 00:29 | 14.46032 | 102.24315 | 34453 ft | 500 kts | 70° |
| 2026-05-06 00:29 | 14.47176 | 102.27691 | 34860 ft | 498 kts | 70° |
| 2026-05-06 00:29 | 14.48316 | 102.31059 | 35252 ft | 497 kts | 70° |
| 2026-05-06 00:29 | 14.49452 | 102.34417 | 35649 ft | 495 kts | 70° |
| 2026-05-06 00:30 | 14.50586 | 102.37771 | 36034 ft | 494 kts | 70° |
| 2026-05-06 00:30 | 14.51716 | 102.41115 | 36414 ft | 493 kts | 70° |
| 2026-05-06 00:30 | 14.52843 | 102.44452 | 36782 ft | 492 kts | 70° |
| 2026-05-06 00:30 | 14.53970 | 102.47790 | 36935 ft | 495 kts | 70° |
| 2026-05-06 00:31 | 14.55102 | 102.51145 | 36924 ft | 493 kts | 70° |
| 2026-05-06 00:31 | 14.57351 | 102.57818 | 36918 ft | 492 kts | 70° |
| 2026-05-06 00:32 | 14.59597 | 102.64488 | 36937 ft | 492 kts | 70° |
| 2026-05-06 00:32 | 14.61843 | 102.71166 | 36935 ft | 492 kts | 70° |
| 2026-05-06 00:33 | 14.64088 | 102.77843 | 36932 ft | 493 kts | 70° |
| 2026-05-06 00:33 | 14.66348 | 102.84532 | 36933 ft | 493 kts | 70° |
| 2026-05-06 00:34 | 14.68607 | 102.91216 | 36935 ft | 493 kts | 70° |
| 2026-05-06 00:34 | 14.70863 | 102.97905 | 36934 ft | 493 kts | 70° |
| 2026-05-06 00:35 | 14.73101 | 103.04552 | 36933 ft | 494 kts | 70° |
| 2026-05-06 00:35 | 14.75355 | 103.11253 | 36931 ft | 494 kts | 70° |
| 2026-05-06 00:36 | 14.77608 | 103.17957 | 36934 ft | 494 kts | 70° |
| 2026-05-06 00:36 | 14.79856 | 103.24655 | 36933 ft | 494 kts | 70° |
| 2026-05-06 00:37 | 14.82106 | 103.31366 | 36933 ft | 494 kts | 70° |
| 2026-05-06 00:37 | 14.84364 | 103.38072 | 36934 ft | 494 kts | 68° |
| 2026-05-06 00:38 | 14.87463 | 103.44384 | 36944 ft | 493 kts | 57° |
| 2026-05-06 00:38 | 14.91629 | 103.49990 | 36942 ft | 492 kts | 48° |
| 2026-05-06 00:39 | 14.96139 | 103.55317 | 36939 ft | 492 kts | 48° |
| 2026-05-06 00:39 | 15.00625 | 103.60670 | 36934 ft | 493 kts | 49° |
| 2026-05-06 00:40 | 15.05077 | 103.66058 | 36935 ft | 492 kts | 49° |
| 2026-05-06 00:40 | 15.09523 | 103.71451 | 36936 ft | 493 kts | 49° |
| 2026-05-06 00:41 | 15.14148 | 103.76671 | 36924 ft | 492 kts | 40° |
| 2026-05-06 00:41 | 15.19767 | 103.80652 | 36938 ft | 490 kts | 26° |
| 2026-05-06 00:42 | 15.25973 | 103.83443 | 36944 ft | 489 kts | 21° |
| 2026-05-06 00:42 | 15.32278 | 103.86112 | 36927 ft | 489 kts | 21° |
| 2026-05-06 00:43 | 15.38561 | 103.88824 | 36939 ft | 489 kts | 22° |
| 2026-05-06 00:43 | 15.44834 | 103.91577 | 36938 ft | 490 kts | 22° |
| 2026-05-06 00:44 | 15.51104 | 103.94342 | 36938 ft | 490 kts | 22° |
| 2026-05-06 00:44 | 15.56365 | 103.96661 | 36938 ft | 490 kts | 22° |
| 2026-05-06 00:45 | 15.62597 | 103.99408 | 36938 ft | 490 kts | 22° |
| 2026-05-06 00:45 | 15.68867 | 104.02173 | 36937 ft | 490 kts | 22° |
| 2026-05-06 00:46 | 15.75143 | 104.04942 | 36940 ft | 490 kts | 22° |
| 2026-05-06 00:46 | 15.81419 | 104.07714 | 36932 ft | 490 kts | 22° |
| 2026-05-06 00:47 | 15.87697 | 104.10488 | 36938 ft | 490 kts | 22° |
| 2026-05-06 00:47 | 15.93967 | 104.13261 | 36936 ft | 490 kts | 22° |
| 2026-05-06 00:48 | 16.00243 | 104.16038 | 36934 ft | 490 kts | 22° |
| 2026-05-06 00:48 | 16.06157 | 104.19571 | 36943 ft | 493 kts | 36° |
| 2026-05-06 00:49 | 16.11185 | 104.24424 | 36944 ft | 495 kts | 47° |
| 2026-05-06 00:49 | 16.15757 | 104.29781 | 36931 ft | 495 kts | 47° |
| 2026-05-06 00:50 | 16.20352 | 104.35117 | 36935 ft | 495 kts | 46° |
| 2026-05-06 00:50 | 16.24992 | 104.40417 | 36935 ft | 495 kts | 46° |
| 2026-05-06 00:51 | 16.29620 | 104.45730 | 36936 ft | 495 kts | 47° |
| 2026-05-06 00:51 | 16.34213 | 104.51075 | 36936 ft | 495 kts | 47° |
| 2026-05-06 00:52 | 16.38805 | 104.56429 | 36932 ft | 495 kts | 47° |
| 2026-05-06 00:52 | 16.43400 | 104.61778 | 36937 ft | 496 kts | 47° |
| 2026-05-06 00:53 | 16.47999 | 104.67135 | 36940 ft | 496 kts | 47° |
| 2026-05-06 00:53 | 16.52598 | 104.72496 | 36939 ft | 496 kts | 47° |
| 2026-05-06 00:54 | 16.57034 | 104.77946 | 36941 ft | 497 kts | 53° |
| 2026-05-06 00:54 | 16.60819 | 104.83988 | 36944 ft | 498 kts | 56° |
| 2026-05-06 00:55 | 16.64516 | 104.90108 | 36934 ft | 498 kts | 56° |
| 2026-05-06 00:55 | 16.68243 | 104.96203 | 36937 ft | 498 kts | 56° |
| 2026-05-06 00:56 | 16.71991 | 105.02282 | 36929 ft | 498 kts | 56° |
| 2026-05-06 00:56 | 16.75742 | 105.08365 | 36931 ft | 499 kts | 56° |
| 2026-05-06 00:57 | 16.79490 | 105.14455 | 36932 ft | 499 kts | 56° |
| 2026-05-06 00:57 | 16.83240 | 105.20557 | 36933 ft | 499 kts | 56° |
| 2026-05-06 00:58 | 16.86989 | 105.26659 | 36928 ft | 500 kts | 56° |
| 2026-05-06 00:58 | 16.90733 | 105.32771 | 36929 ft | 499 kts | 56° |
| 2026-05-06 00:59 | 16.94477 | 105.38891 | 36931 ft | 500 kts | 56° |
| 2026-05-06 00:59 | 16.98222 | 105.45020 | 36928 ft | 501 kts | 56° |
| 2026-05-06 01:00 | 17.01970 | 105.51158 | 36930 ft | 501 kts | 56° |
| 2026-05-06 01:00 | 17.05713 | 105.57292 | 36929 ft | 501 kts | 56° |
| 2026-05-06 01:01 | 17.09454 | 105.63429 | 36934 ft | 501 kts | 56° |
| 2026-05-06 01:01 | 17.13195 | 105.69571 | 36936 ft | 501 kts | 56° |
| 2026-05-06 01:02 | 17.16909 | 105.75676 | 36933 ft | 501 kts | 56° |
| 2026-05-06 01:02 | 17.20645 | 105.81822 | 36944 ft | 501 kts | 56° |
| 2026-05-06 01:03 | 17.24380 | 105.87971 | 36953 ft | 501 kts | 56° |
| 2026-05-06 01:03 | 17.28118 | 105.94132 | 36942 ft | 501 kts | 56° |
| 2026-05-06 01:04 | 17.31847 | 106.00284 | 36947 ft | 500 kts | 56° |
| 2026-05-06 01:04 | 17.35348 | 106.06064 | 36952 ft | 501 kts | 56° |
| 2026-05-06 01:05 | 17.39094 | 106.12217 | 36949 ft | 501 kts | 55° |
| 2026-05-06 01:05 | 17.42875 | 106.18350 | 36951 ft | 501 kts | 55° |
| 2026-05-06 01:06 | 17.46651 | 106.24478 | 36940 ft | 501 kts | 55° |
| 2026-05-06 01:06 | 17.50422 | 106.30618 | 36940 ft | 501 kts | 55° |
| 2026-05-06 01:07 | 17.54190 | 106.36763 | 36937 ft | 501 kts | 55° |
| 2026-05-06 01:07 | 17.57931 | 106.42869 | 36934 ft | 501 kts | 55° |
| 2026-05-06 01:08 | 17.61697 | 106.49022 | 36926 ft | 501 kts | 55° |
| 2026-05-06 01:08 | 17.65458 | 106.55173 | 36927 ft | 501 kts | 55° |
| 2026-05-06 01:09 | 17.69218 | 106.61329 | 36925 ft | 501 kts | 55° |
| 2026-05-06 01:09 | 17.72969 | 106.67486 | 36926 ft | 501 kts | 55° |
| 2026-05-06 01:10 | 17.76721 | 106.73657 | 36926 ft | 502 kts | 55° |
| 2026-05-06 01:10 | 17.80474 | 106.79833 | 36925 ft | 502 kts | 55° |
| 2026-05-06 01:11 | 17.84225 | 106.86013 | 36925 ft | 502 kts | 55° |
| 2026-05-06 01:11 | 17.87980 | 106.92204 | 36923 ft | 502 kts | 55° |
| 2026-05-06 01:12 | 17.91748 | 106.98377 | 36928 ft | 502 kts | 55° |
| 2026-05-06 01:12 | 17.95535 | 107.04544 | 36927 ft | 502 kts | 55° |
| 2026-05-06 01:13 | 17.99316 | 107.10718 | 36923 ft | 502 kts | 55° |
| 2026-05-06 01:13 | 18.03092 | 107.16896 | 36923 ft | 503 kts | 55° |
| 2026-05-06 01:14 | 18.08726 | 107.26129 | 36924 ft | 503 kts | 55° |
| 2026-05-06 01:14 | 18.12490 | 107.32326 | 36927 ft | 503 kts | 55° |
| 2026-05-06 01:15 | 18.16249 | 107.38524 | 36932 ft | 503 kts | 55° |
| 2026-05-06 01:15 | 18.20010 | 107.44730 | 36929 ft | 503 kts | 55° |
| 2026-05-06 01:16 | 18.23767 | 107.50935 | 36929 ft | 503 kts | 55° |
| 2026-05-06 01:16 | 18.27521 | 107.57142 | 36926 ft | 503 kts | 55° |
| 2026-05-06 01:17 | 18.31276 | 107.63354 | 36925 ft | 503 kts | 55° |
| 2026-05-06 01:17 | 18.35136 | 107.69487 | 36927 ft | 502 kts | 50° |
| 2026-05-06 01:18 | 18.39559 | 107.75157 | 36939 ft | 501 kts | 47° |
| 2026-05-06 01:18 | 18.44056 | 107.80763 | 36928 ft | 501 kts | 47° |
| 2026-05-06 01:19 | 18.48529 | 107.86394 | 36930 ft | 501 kts | 48° |
| 2026-05-06 01:19 | 18.52979 | 107.92049 | 36933 ft | 501 kts | 48° |
| 2026-05-06 01:20 | 18.57422 | 107.97714 | 36930 ft | 501 kts | 48° |
| 2026-05-06 01:20 | 18.61860 | 108.03377 | 36933 ft | 501 kts | 48° |
| 2026-05-06 01:21 | 18.66299 | 108.09042 | 36931 ft | 501 kts | 48° |
| 2026-05-06 01:21 | 18.70735 | 108.14709 | 36929 ft | 501 kts | 48° |
| 2026-05-06 01:22 | 18.75170 | 108.20378 | 36929 ft | 501 kts | 48° |
| 2026-05-06 01:22 | 18.79603 | 108.26051 | 36930 ft | 501 kts | 48° |
| 2026-05-06 01:23 | 18.84039 | 108.31733 | 36928 ft | 501 kts | 48° |
| 2026-05-06 01:23 | 18.88446 | 108.37383 | 36928 ft | 501 kts | 48° |
| 2026-05-06 01:24 | 18.92877 | 108.43069 | 36930 ft | 501 kts | 48° |
| 2026-05-06 01:24 | 18.97305 | 108.48756 | 36928 ft | 501 kts | 48° |
| 2026-05-06 01:25 | 19.01732 | 108.54448 | 36931 ft | 502 kts | 48° |
| 2026-05-06 01:25 | 19.06165 | 108.60151 | 36932 ft | 502 kts | 48° |
| 2026-05-06 01:26 | 19.10590 | 108.65851 | 36972 ft | 501 kts | 48° |
| 2026-05-06 01:26 | 19.15014 | 108.71556 | 37022 ft | 502 kts | 48° |
| 2026-05-06 01:27 | 19.19441 | 108.77269 | 37037 ft | 502 kts | 48° |
| 2026-05-06 01:27 | 19.23865 | 108.82984 | 37033 ft | 502 kts | 48° |
| 2026-05-06 01:28 | 19.28286 | 108.88689 | 37036 ft | 501 kts | 48° |
| 2026-05-06 01:28 | 19.32718 | 108.94395 | 37040 ft | 502 kts | 48° |
| 2026-05-06 01:29 | 19.37151 | 109.00106 | 37037 ft | 502 kts | 48° |
| 2026-05-06 01:29 | 19.41578 | 109.05820 | 37040 ft | 502 kts | 48° |
| 2026-05-06 01:30 | 19.45977 | 109.11505 | 37039 ft | 502 kts | 48° |
| 2026-05-06 01:30 | 19.50400 | 109.17226 | 37040 ft | 502 kts | 48° |
| 2026-05-06 01:31 | 19.54816 | 109.22968 | 37039 ft | 502 kts | 48° |
| 2026-05-06 01:31 | 19.59200 | 109.28734 | 37041 ft | 502 kts | 49° |
| 2026-05-06 01:32 | 19.63582 | 109.34512 | 37049 ft | 502 kts | 49° |
| 2026-05-06 01:32 | 19.67960 | 109.40284 | 37038 ft | 503 kts | 49° |
| 2026-05-06 01:33 | 19.72346 | 109.46065 | 37039 ft | 502 kts | 49° |
| 2026-05-06 01:33 | 19.76728 | 109.51846 | 37039 ft | 502 kts | 49° |
| 2026-05-06 01:34 | 19.81105 | 109.57627 | 37041 ft | 503 kts | 49° |
| 2026-05-06 01:34 | 19.85487 | 109.63419 | 37038 ft | 503 kts | 49° |
| 2026-05-06 01:35 | 19.89863 | 109.69210 | 37043 ft | 503 kts | 49° |
| 2026-05-06 01:35 | 19.94218 | 109.74978 | 37043 ft | 504 kts | 49° |
| 2026-05-06 01:36 | 19.98600 | 109.80789 | 37045 ft | 504 kts | 49° |
| 2026-05-06 01:36 | 20.02978 | 109.86600 | 37047 ft | 503 kts | 49° |
| 2026-05-06 01:37 | 20.07350 | 109.92409 | 37045 ft | 503 kts | 49° |
| 2026-05-06 01:37 | 20.11723 | 109.98224 | 37045 ft | 503 kts | 49° |
| 2026-05-06 01:38 | 20.16096 | 110.04045 | 37049 ft | 504 kts | 49° |
| 2026-05-06 01:38 | 20.20469 | 110.09873 | 37047 ft | 504 kts | 49° |
| 2026-05-06 01:39 | 20.24840 | 110.15705 | 37051 ft | 504 kts | 49° |
| 2026-05-06 01:39 | 20.29208 | 110.21538 | 37050 ft | 504 kts | 49° |
| 2026-05-06 01:40 | 20.33598 | 110.27347 | 37053 ft | 504 kts | 48° |
| 2026-05-06 01:40 | 20.38033 | 110.33136 | 37056 ft | 504 kts | 48° |
| 2026-05-06 01:41 | 20.42457 | 110.38928 | 37057 ft | 504 kts | 48° |
| 2026-05-06 01:41 | 20.46874 | 110.44732 | 37052 ft | 504 kts | 49° |
| 2026-05-06 01:42 | 20.50489 | 110.50576 | 37058 ft | 508 kts | 59° |
| 2026-05-06 01:42 | 20.53334 | 110.57499 | 37058 ft | 511 kts | 68° |
| 2026-05-06 01:43 | 20.55676 | 110.64664 | 37058 ft | 512 kts | 69° |
| 2026-05-06 01:43 | 20.58015 | 110.71789 | 37053 ft | 512 kts | 68° |
| 2026-05-06 01:44 | 20.60418 | 110.78947 | 37055 ft | 512 kts | 68° |
| 2026-05-06 01:44 | 20.62825 | 110.86098 | 37057 ft | 512 kts | 68° |
| 2026-05-06 01:45 | 20.65227 | 110.93253 | 37056 ft | 512 kts | 68° |
| 2026-05-06 01:45 | 20.67646 | 111.00414 | 37057 ft | 512 kts | 68° |
| 2026-05-06 01:46 | 20.70067 | 111.07576 | 37059 ft | 513 kts | 68° |
| 2026-05-06 01:46 | 20.72484 | 111.14746 | 37058 ft | 513 kts | 68° |
| 2026-05-06 01:47 | 20.74895 | 111.21917 | 37058 ft | 513 kts | 68° |
| 2026-05-06 01:47 | 20.77305 | 111.29097 | 37062 ft | 514 kts | 68° |
| 2026-05-06 01:48 | 20.79714 | 111.36284 | 37062 ft | 513 kts | 68° |
| 2026-05-06 01:48 | 20.82121 | 111.43477 | 36985 ft | 514 kts | 68° |
| 2026-05-06 01:49 | 20.84525 | 111.50669 | 36962 ft | 513 kts | 68° |
| 2026-05-06 01:49 | 20.86948 | 111.57849 | 36966 ft | 514 kts | 68° |
| 2026-05-06 01:50 | 20.89367 | 111.64984 | 36973 ft | 514 kts | 68° |
| 2026-05-06 01:50 | 20.91816 | 111.72227 | 36968 ft | 514 kts | 68° |
| 2026-05-06 01:51 | 20.94225 | 111.79375 | 36964 ft | 514 kts | 68° |
| 2026-05-06 01:51 | 20.96646 | 111.86573 | 36965 ft | 514 kts | 68° |
| 2026-05-06 01:52 | 20.99063 | 111.93771 | 36966 ft | 514 kts | 68° |
| 2026-05-06 01:52 | 21.01480 | 112.00977 | 36974 ft | 515 kts | 68° |
| 2026-05-06 01:53 | 21.03893 | 112.08187 | 36966 ft | 515 kts | 68° |
| 2026-05-06 01:53 | 21.06305 | 112.15402 | 36972 ft | 514 kts | 68° |
| 2026-05-06 01:54 | 21.08713 | 112.22616 | 36974 ft | 515 kts | 68° |
| 2026-05-06 01:54 | 21.11117 | 112.29833 | 36973 ft | 515 kts | 69° |
| 2026-05-06 01:55 | 21.13519 | 112.37053 | 36971 ft | 515 kts | 69° |
| 2026-05-06 01:55 | 21.15919 | 112.44278 | 36971 ft | 515 kts | 69° |
| 2026-05-06 01:56 | 21.18315 | 112.51503 | 36987 ft | 515 kts | 69° |
| 2026-05-06 01:56 | 21.19522 | 112.55146 | 36365 ft | 525 kts | 69° |
| 2026-05-06 01:56 | 21.20747 | 112.58846 | 35640 ft | 526 kts | 69° |
| 2026-05-06 01:57 | 21.21968 | 112.62539 | 34770 ft | 527 kts | 69° |
| 2026-05-06 01:57 | 21.23191 | 112.66242 | 33904 ft | 528 kts | 69° |
| 2026-05-06 01:57 | 21.24417 | 112.69957 | 32879 ft | 530 kts | 69° |
| 2026-05-06 01:57 | 21.25645 | 112.73681 | 31894 ft | 530 kts | 69° |
| 2026-05-06 01:58 | 21.26872 | 112.77405 | 30874 ft | 531 kts | 69° |
| 2026-05-06 01:58 | 21.28100 | 112.81135 | 30027 ft | 528 kts | 69° |
| 2026-05-06 01:58 | 21.29314 | 112.84827 | 29252 ft | 522 kts | 69° |
| 2026-05-06 01:58 | 21.30512 | 112.88473 | 28526 ft | 515 kts | 69° |
| 2026-05-06 01:59 | 21.31694 | 112.92070 | 27848 ft | 508 kts | 69° |
| 2026-05-06 01:59 | 21.32860 | 112.95625 | 27201 ft | 502 kts | 69° |
| 2026-05-06 01:59 | 21.34010 | 112.99134 | 26555 ft | 496 kts | 69° |
| 2026-05-06 01:59 | 21.35147 | 113.02607 | 25915 ft | 491 kts | 69° |
| 2026-05-06 02:00 | 21.36256 | 113.05998 | 25280 ft | 486 kts | 69° |
| 2026-05-06 02:00 | 21.37371 | 113.09407 | 24661 ft | 482 kts | 69° |
| 2026-05-06 02:00 | 21.38477 | 113.12786 | 24028 ft | 478 kts | 69° |
| 2026-05-06 02:00 | 21.39577 | 113.16139 | 23381 ft | 475 kts | 70° |
| 2026-05-06 02:01 | 21.40670 | 113.19472 | 22668 ft | 471 kts | 70° |
| 2026-05-06 02:01 | 21.41749 | 113.22764 | 22056 ft | 465 kts | 70° |
| 2026-05-06 02:01 | 21.42817 | 113.26027 | 21444 ft | 460 kts | 70° |
| 2026-05-06 02:01 | 21.43870 | 113.29247 | 20842 ft | 455 kts | 70° |
| 2026-05-06 02:02 | 21.44914 | 113.32441 | 20252 ft | 451 kts | 70° |
| 2026-05-06 02:02 | 21.45946 | 113.35602 | 19667 ft | 447 kts | 70° |
| 2026-05-06 02:02 | 21.46970 | 113.38739 | 19070 ft | 443 kts | 70° |
| 2026-05-06 02:02 | 21.47983 | 113.41847 | 18487 ft | 440 kts | 70° |
| 2026-05-06 02:03 | 21.48991 | 113.44940 | 17854 ft | 437 kts | 70° |
| 2026-05-06 02:03 | 21.49985 | 113.48009 | 17236 ft | 433 kts | 70° |
| 2026-05-06 02:03 | 21.50958 | 113.51054 | 16641 ft | 429 kts | 70° |
| 2026-05-06 02:03 | 21.51922 | 113.54062 | 16077 ft | 423 kts | 69° |
| 2026-05-06 02:04 | 21.53139 | 113.56916 | 15518 ft | 418 kts | 59° |
| 2026-05-06 02:04 | 21.54724 | 113.59507 | 14958 ft | 413 kts | 51° |
| 2026-05-06 02:04 | 21.56590 | 113.61824 | 14379 ft | 408 kts | 43° |
| 2026-05-06 02:04 | 21.58624 | 113.63932 | 13843 ft | 405 kts | 41° |
| 2026-05-06 02:05 | 21.60638 | 113.66002 | 13511 ft | 395 kts | 41° |
| 2026-05-06 02:05 | 21.62579 | 113.68030 | 13322 ft | 383 kts | 42° |
| 2026-05-06 02:05 | 21.64449 | 113.70006 | 13153 ft | 371 kts | 42° |
| 2026-05-06 02:05 | 21.66282 | 113.71915 | 12793 ft | 365 kts | 40° |
| 2026-05-06 02:06 | 21.68147 | 113.73739 | 12356 ft | 361 kts | 39° |
| 2026-05-06 02:06 | 21.70014 | 113.75535 | 11942 ft | 358 kts | 39° |
| 2026-05-06 02:06 | 21.71980 | 113.77112 | 11239 ft | 354 kts | 22° |
| 2026-05-06 02:06 | 21.74313 | 113.77807 | 10945 ft | 342 kts | 4° |
| 2026-05-06 02:07 | 21.76631 | 113.77938 | 10785 ft | 328 kts | 358° |
| 2026-05-06 02:07 | 21.78874 | 113.77934 | 10081 ft | 318 kts | 356° |
| 2026-05-06 02:07 | 21.81083 | 113.77895 | 9006 ft | 319 kts | 356° |
| 2026-05-06 02:07 | 21.83337 | 113.77850 | 8308 ft | 327 kts | 356° |
| 2026-05-06 02:08 | 21.85586 | 113.77812 | 8194 ft | 318 kts | 357° |
| 2026-05-06 02:08 | 21.87746 | 113.77782 | 8045 ft | 301 kts | 357° |
| 2026-05-06 02:08 | 21.89789 | 113.77760 | 7746 ft | 286 kts | 357° |
| 2026-05-06 02:08 | 21.91745 | 113.77740 | 7258 ft | 279 kts | 358° |
| 2026-05-06 02:09 | 21.93699 | 113.77720 | 6625 ft | 286 kts | 358° |
| 2026-05-06 02:09 | 21.95675 | 113.77700 | 6191 ft | 291 kts | 359° |
| 2026-05-06 02:09 | 21.97707 | 113.77681 | 5791 ft | 293 kts | 359° |
| 2026-05-06 02:09 | 21.99743 | 113.77664 | 5457 ft | 293 kts | 359° |
| 2026-05-06 02:10 | 22.01768 | 113.77648 | 5141 ft | 286 kts | 359° |
| 2026-05-06 02:10 | 22.03723 | 113.77631 | 4754 ft | 275 kts | 360° |
| 2026-05-06 02:10 | 22.05591 | 113.77614 | 4473 ft | 262 kts | 0° |
| 2026-05-06 02:10 | 22.07397 | 113.77599 | 4199 ft | 258 kts | 0° |
| 2026-05-06 02:11 | 22.09163 | 113.77584 | 4093 ft | 249 kts | 1° |
| 2026-05-06 02:11 | 22.10840 | 113.77489 | 3991 ft | 236 kts | 347° |
| 2026-05-06 02:11 | 22.12362 | 113.76876 | 3824 ft | 231 kts | 336° |
| 2026-05-06 02:11 | 22.13779 | 113.76132 | 3708 ft | 222 kts | 334° |
| 2026-05-06 02:12 | 22.15146 | 113.75410 | 3500 ft | 216 kts | 335° |
| 2026-05-06 02:12 | 22.16482 | 113.74720 | 3344 ft | 210 kts | 336° |
| 2026-05-06 02:12 | 22.17799 | 113.74051 | 3200 ft | 210 kts | 336° |
| 2026-05-06 02:12 | 22.19119 | 113.73385 | 3044 ft | 209 kts | 336° |
| 2026-05-06 02:13 | 22.20426 | 113.72731 | 2936 ft | 205 kts | 336° |
| 2026-05-06 02:13 | 22.21722 | 113.72084 | 2780 ft | 205 kts | 336° |
| 2026-05-06 02:13 | 22.23053 | 113.71634 | 2597 ft | 199 kts | 3° |
| 2026-05-06 02:13 | 22.23922 | 113.71858 | 2505 ft | 192 kts | 32° |
| 2026-05-06 02:14 | 22.24957 | 113.72728 | 2434 ft | 188 kts | 44° |
| 2026-05-06 02:14 | 22.25956 | 113.73642 | 2273 ft | 188 kts | 44° |
| 2026-05-06 02:14 | 22.26944 | 113.74550 | 2153 ft | 185 kts | 43° |
| 2026-05-06 02:14 | 22.27825 | 113.75539 | 2060 ft | 183 kts | 63° |
| 2026-05-06 02:15 | 22.28366 | 113.76763 | 2009 ft | 175 kts | 68° |
| 2026-05-06 02:15 | 22.28811 | 113.77877 | 1960 ft | 147 kts | 72° |
| 2026-05-06 02:15 | 22.29166 | 113.78932 | 1791 ft | 150 kts | 73° |
| 2026-05-06 02:15 | 22.29503 | 113.79969 | 1609 ft | 145 kts | 73° |
| 2026-05-06 02:16 | 22.29834 | 113.80998 | 1403 ft | 145 kts | 74° |
| 2026-05-06 02:16 | 22.30165 | 113.82027 | 1223 ft | 143 kts | 74° |
| 2026-05-06 02:16 | 22.30484 | 113.83023 | 1036 ft | 142 kts | 73° |
| 2026-05-06 02:16 | 22.30808 | 113.84035 | 860 ft | 142 kts | 72° |
| 2026-05-06 02:17 | 22.31134 | 113.85043 | 660 ft | 141 kts | 73° |
| 2026-05-06 02:17 | 22.31449 | 113.86035 | 489 ft | 141 kts | 71° |
| 2026-05-06 02:17 | 22.31777 | 113.87036 | 303 ft | 142 kts | 71° |
| 2026-05-06 02:17 | 22.32103 | 113.88033 | 117 ft | 140 kts | 72° |
| 2026-05-06 02:18 | 22.32409 | 113.88993 | 43 ft | 126 kts | 70° |
| 2026-05-06 02:18 | 22.32646 | 113.89729 | 43 ft | 83 kts | 70° |
| 2026-05-06 02:18 | 22.32778 | 113.90136 | 42 ft | 44 kts | 71° |
| 2026-05-06 02:18 | 22.32825 | 113.90405 | 41 ft | 34 kts | 92° |
| 2026-05-06 02:19 | 22.32781 | 113.90637 | 42 ft | 30 kts | 98° |
| 2026-05-06 02:19 | 22.32829 | 113.90854 | 42 ft | 30 kts | 71° |
| 2026-05-06 02:19 | 22.32898 | 113.91067 | 43 ft | 30 kts | 71° |
| 2026-05-06 02:19 | 22.32966 | 113.91280 | 43 ft | 30 kts | 71° |
| 2026-05-06 02:20 | 22.33103 | 113.91704 | 42 ft | 30 kts | 71° |
| 2026-05-06 02:20 | 22.33170 | 113.91911 | 42 ft | 24 kts | 71° |
| 2026-05-06 02:20 | 22.33207 | 113.92025 | 42 ft | 10 kts | 71° |
| 2026-05-06 02:21 | 22.33208 | 113.92095 | 42 ft | 10 kts | 124° |
| 2026-05-06 02:21 | 22.33145 | 113.92130 | 42 ft | 11 kts | 160° |
| 2026-05-06 02:21 | 22.33072 | 113.92156 | 42 ft | 12 kts | 161° |
| 2026-05-06 02:21 | 22.32994 | 113.92185 | 42 ft | 12 kts | 160° |
| 2026-05-06 02:22 | 22.32917 | 113.92215 | 42 ft | 12 kts | 160° |
| 2026-05-06 02:22 | 22.32835 | 113.92246 | 42 ft | 14 kts | 161° |
| 2026-05-06 02:22 | 22.32737 | 113.92282 | 42 ft | 16 kts | 161° |
| 2026-05-06 02:22 | 22.32624 | 113.92325 | 42 ft | 18 kts | 161° |
| 2026-05-06 02:23 | 22.32495 | 113.92373 | 42 ft | 20 kts | 161° |
| 2026-05-06 02:23 | 22.32362 | 113.92423 | 42 ft | 20 kts | 161° |
| 2026-05-06 02:23 | 22.32268 | 113.92460 | 42 ft | 9 kts | 153° |
| 2026-05-06 02:23 | 22.32251 | 113.92522 | 42 ft | 9 kts | 79° |
| 2026-05-06 02:24 | 22.32271 | 113.92591 | 42 ft | 8 kts | 71° |
| 2026-05-06 02:24 | 22.32258 | 113.92648 | 42 ft | 9 kts | 134° |
| 2026-05-06 02:24 | 22.32202 | 113.92678 | 42 ft | 9 kts | 161° |
| 2026-05-06 02:24 | 22.32136 | 113.92703 | 41 ft | 11 kts | 161° |
| 2026-05-06 02:25 | 22.32058 | 113.92732 | 40 ft | 13 kts | 161° |
| 2026-05-06 02:25 | 22.31975 | 113.92764 | 41 ft | 13 kts | 161° |
| 2026-05-06 02:25 | 22.31890 | 113.92798 | 42 ft | 13 kts | 158° |
| 2026-05-06 02:25 | 22.31807 | 113.92836 | 42 ft | 13 kts | 156° |
| 2026-05-06 02:26 | 22.31722 | 113.92873 | 42 ft | 13 kts | 161° |
| 2026-05-06 02:26 | 22.31637 | 113.92905 | 42 ft | 13 kts | 161° |
| 2026-05-06 02:26 | 22.31574 | 113.92930 | 42 ft | 8 kts | 151° |
| 2026-05-06 02:26 | 22.31556 | 113.92982 | 42 ft | 8 kts | 87° |
| 2026-05-06 02:27 | 22.31571 | 113.93041 | 42 ft | 9 kts | 71° |
| 2026-05-06 02:27 | 22.31591 | 113.93105 | 42 ft | 9 kts | 71° |
| 2026-05-06 02:27 | 22.31622 | 113.93164 | 42 ft | 9 kts | 41° |
| 2026-05-06 02:27 | 22.31658 | 113.93202 | 42 ft | 7 kts | 59° |
| 2026-05-06 02:28 | 22.31673 | 113.93239 | 42 ft | 5 kts | 69° |
| 2026-05-06 02:28 | 22.31682 | 113.93269 | 42 ft | 4 kts | 71° |
| 2026-05-06 02:28 | 22.31685 | 113.93277 | 42 ft | 1 kts | 71° |
| 2026-05-06 02:28 | 22.31687 | 113.93284 | 42 ft | 1 kts | 71° |
| 2026-05-06 02:29 | 22.31690 | 113.93291 | 42 ft | 1 kts | 71° |
| 2026-05-06 02:29 | 22.31692 | 113.93298 | 42 ft | 1 kts | 71° |
| 2026-05-06 02:29 | 22.31692 | 113.93300 | 42 ft | 0 kts | 71° |